< < Back
Terminal Aerodrome Forecast


Current Version              Previous Versions:   1  2  3  4  5  6  7  8  9  

Terminal Aerodrome Forecast

324
FTUS42 KGSP 011740
TAFAVL
TAF
KAVL 011740Z 0118/0218 18010G17KT P6SM BKN025
     FM012200 17009KT P6SM -SHRA OVC020
     FM020000 18007KT 5SM -SHRA OVC008
     FM020700 21008KT 2SM -SHRA BR OVC008
     FM021000 34012G20KT P6SM -SHRA OVC015
     FM021400 34020G32KT P6SM BKN030=

Latest METAR

557
SAUS70 KWBC 020100 RRG
MTRAVL
METAR KAVL 020054Z 14006KT 6SM -RA BR BKN012 OVC017 06/06 A2990 RMK AO2
SLP127 P0009 T00610056


USA.gov is the U.S. government's official web portal to all federal, state and local government web resources and services.